createdAt,value
2022-11-30T00:00:48.782Z,49.00
2022-11-30T00:03:23.594Z,49.00
2022-11-30T00:05:58.307Z,48.90
2022-11-30T00:08:32.745Z,48.70
2022-11-30T00:11:12.505Z,48.30
2022-11-30T00:13:49.260Z,48.30
2022-11-30T00:16:24.428Z,48.30
2022-11-30T00:18:59.414Z,48.30
2022-11-30T00:21:34.122Z,48.30
2022-11-30T00:24:09.424Z,48.20
2022-11-30T00:26:47.227Z,48.20
2022-11-30T00:29:22.797Z,48.10
2022-11-30T00:31:57.683Z,48.10
2022-11-30T00:34:32.084Z,48.10
2022-11-30T00:37:06.787Z,48.00
2022-11-30T00:39:41.520Z,48.00
2022-11-30T00:42:15.914Z,48.20
2022-11-30T00:44:52.043Z,48.10
2022-11-30T00:47:26.051Z,48.00
2022-11-30T00:49:59.785Z,48.10
2022-11-30T00:52:34.047Z,47.80
2022-11-30T00:55:09.217Z,47.90
2022-11-30T00:57:43.465Z,47.90
2022-11-30T01:00:20.464Z,47.90
2022-11-30T01:02:55.681Z,48.00
2022-11-30T01:05:30.065Z,48.00
2022-11-30T01:08:06.246Z,47.80
2022-11-30T01:10:42.714Z,47.80
2022-11-30T01:13:17.364Z,48.00
2022-11-30T01:15:53.627Z,48.20
2022-11-30T01:18:28.637Z,48.30
2022-11-30T01:21:07.072Z,48.50
2022-11-30T01:23:42.460Z,48.60
2022-11-30T01:26:17.405Z,48.60
2022-11-30T01:28:52.603Z,48.70
2022-11-30T01:31:28.747Z,48.80
2022-11-30T01:34:06.074Z,48.80
2022-11-30T01:36:40.905Z,49.00
2022-11-30T01:39:15.287Z,48.90
2022-11-30T01:41:48.845Z,48.90
2022-11-30T01:44:51.142Z,49.00
2022-11-30T01:47:31.855Z,49.10
2022-11-30T01:50:10.476Z,49.00
2022-11-30T01:52:47.161Z,49.00
2022-11-30T01:55:24.129Z,48.90
2022-11-30T01:58:03.344Z,49.00
2022-11-30T02:00:37.592Z,48.90
2022-11-30T02:03:23.079Z,49.00
2022-11-30T02:05:57.935Z,49.00
2022-11-30T02:08:33.071Z,49.00
2022-11-30T02:11:11.300Z,48.90
2022-11-30T02:13:59.022Z,48.90
2022-11-30T02:16:42.131Z,49.00
2022-11-30T02:19:48.250Z,49.00
2022-11-30T02:22:37.037Z,49.00
2022-11-30T02:25:19.708Z,49.00
2022-11-30T02:28:15.494Z,49.10
2022-11-30T02:30:53.384Z,49.10
2022-11-30T02:33:30.066Z,49.10
2022-11-30T02:36:06.623Z,49.00
2022-11-30T02:38:41.771Z,49.00
2022-11-30T02:41:15.783Z,49.00
2022-11-30T02:43:49.959Z,48.90
2022-11-30T02:46:32.752Z,49.00
2022-11-30T02:49:18.880Z,48.90
2022-11-30T02:51:55.486Z,48.90
2022-11-30T02:54:29.267Z,49.00
2022-11-30T02:57:05.836Z,49.50
2022-11-30T02:59:40.305Z,49.00
2022-11-30T03:02:15.803Z,49.00
2022-11-30T03:04:52.627Z,48.90
2022-11-30T03:07:26.807Z,48.90
2022-11-30T03:10:01.141Z,49.60
2022-11-30T03:12:35.551Z,49.00
2022-11-30T03:15:09.956Z,49.10
2022-11-30T03:17:45.291Z,49.10
2022-11-30T03:20:19.297Z,49.00
2022-11-30T03:22:53.074Z,49.00
2022-11-30T03:25:26.602Z,49.00
2022-11-30T03:28:02.241Z,49.10
2022-11-30T03:30:36.006Z,49.00
2022-11-30T03:33:10.889Z,49.10
2022-11-30T03:35:44.653Z,49.20
2022-11-30T03:38:18.124Z,49.10
2022-11-30T03:40:51.895Z,49.30
2022-11-30T03:43:25.377Z,49.10
2022-11-30T03:45:59.213Z,49.20
2022-11-30T03:48:36.171Z,49.10
2022-11-30T03:51:11.279Z,49.30
2022-11-30T03:53:45.038Z,49.20
2022-11-30T03:56:18.677Z,49.30
2022-11-30T03:58:53.165Z,49.50
2022-11-30T04:01:28.228Z,49.30
2022-11-30T04:04:03.506Z,49.40
2022-11-30T04:06:37.254Z,49.40
2022-11-30T04:09:10.771Z,49.50
2022-11-30T04:11:44.546Z,49.40
2022-11-30T04:14:18.038Z,49.50
2022-11-30T04:16:51.783Z,49.50
2022-11-30T04:19:26.676Z,49.40
2022-11-30T04:22:00.710Z,49.50
2022-11-30T04:24:34.195Z,49.50
2022-11-30T04:27:08.034Z,49.60
2022-11-30T04:29:41.511Z,49.40
2022-11-30T04:32:15.274Z,49.50
2022-11-30T04:34:50.353Z,49.40
2022-11-30T04:37:24.183Z,49.40
2022-11-30T04:39:57.695Z,49.50
2022-11-30T04:42:31.442Z,49.50
2022-11-30T04:45:05.904Z,49.40
2022-11-30T04:47:39.893Z,49.90
2022-11-30T04:50:15.068Z,50.10
2022-11-30T04:52:48.976Z,50.30
2022-11-30T04:55:22.721Z,50.50
2022-11-30T04:57:56.526Z,50.60
2022-11-30T05:00:30.277Z,50.60
2022-11-30T05:03:04.141Z,51.20
2022-11-30T05:05:39.357Z,50.80
2022-11-30T05:08:13.139Z,50.80
2022-11-30T05:10:51.589Z,50.90
2022-11-30T05:13:27.614Z,51.00
2022-11-30T05:16:01.546Z,50.90
2022-11-30T05:18:35.369Z,50.90
2022-11-30T05:21:10.283Z,50.80
2022-11-30T05:23:44.244Z,50.80
2022-11-30T05:26:17.717Z,50.70
2022-11-30T05:28:51.460Z,50.80
2022-11-30T05:31:25.006Z,50.60
2022-11-30T05:33:58.814Z,50.60
2022-11-30T05:36:33.726Z,50.50
2022-11-30T05:39:07.764Z,50.50
2022-11-30T05:41:41.511Z,50.40
2022-11-30T05:44:15.224Z,50.30
2022-11-30T05:46:49.071Z,50.30
2022-11-30T05:49:22.866Z,50.20
2022-11-30T05:51:57.786Z,50.10
2022-11-30T05:54:31.590Z,50.00
2022-11-30T05:57:05.531Z,50.00
2022-11-30T05:59:39.295Z,50.00
2022-11-30T06:02:12.902Z,50.00
2022-11-30T06:04:47.021Z,49.90
2022-11-30T06:07:22.487Z,49.80
2022-11-30T06:09:56.307Z,49.80
2022-11-30T06:12:29.785Z,49.70
2022-11-30T06:15:03.619Z,49.60
2022-11-30T06:17:38.090Z,49.60
2022-11-30T06:20:12.031Z,49.70
2022-11-30T06:22:48.242Z,49.60
2022-11-30T06:25:22.272Z,49.60
2022-11-30T06:27:55.839Z,49.60
2022-11-30T06:30:29.610Z,49.60
2022-11-30T06:33:03.097Z,49.50
2022-11-30T06:35:36.850Z,49.50
2022-11-30T06:38:11.740Z,49.50
2022-11-30T06:40:45.626Z,49.60
2022-11-30T06:43:19.999Z,49.60
2022-11-30T06:45:54.023Z,49.40
2022-11-30T06:48:27.847Z,49.50
2022-11-30T06:51:01.623Z,49.60
2022-11-30T06:53:37.454Z,49.80
2022-11-30T06:56:11.901Z,49.70
2022-11-30T06:58:45.749Z,49.60
2022-11-30T07:01:19.343Z,49.60
2022-11-30T07:03:53.295Z,49.80
2022-11-30T07:06:27.188Z,49.60
2022-11-30T07:09:02.698Z,49.60
2022-11-30T07:11:36.838Z,49.60
2022-11-30T07:14:10.639Z,49.60
2022-11-30T07:16:44.140Z,49.80
2022-11-30T07:19:18.754Z,50.00
2022-11-30T07:21:53.848Z,49.90
2022-11-30T07:24:47.417Z,49.70
2022-11-30T07:27:21.644Z,49.60
2022-11-30T07:29:55.636Z,49.40
2022-11-30T07:32:29.266Z,49.30
2022-11-30T07:35:03.356Z,49.10
2022-11-30T07:37:37.338Z,49.20
2022-11-30T07:40:13.577Z,49.00
2022-11-30T07:42:47.470Z,49.00
2022-11-30T07:45:21.369Z,48.80
2022-11-30T07:47:54.959Z,38.50
2022-11-30T07:50:29.575Z,31.00
2022-11-30T07:53:03.746Z,31.30
2022-11-30T07:55:39.056Z,30.00
2022-11-30T07:58:17.320Z,31.20
2022-11-30T08:00:51.610Z,32.10
2022-11-30T08:03:25.788Z,31.00
2022-11-30T08:06:04.256Z,30.40
2022-11-30T08:08:40.036Z,30.00
2022-11-30T08:11:18.036Z,30.40
2022-11-30T08:13:52.878Z,30.60
2022-11-30T08:16:31.119Z,31.20
2022-11-30T08:19:05.879Z,31.70
2022-11-30T08:21:42.701Z,32.60
2022-11-30T08:24:16.876Z,33.30
2022-11-30T08:26:54.038Z,33.90
2022-11-30T08:29:28.228Z,34.20
2022-11-30T08:32:02.283Z,34.50
2022-11-30T08:34:36.336Z,34.80
2022-11-30T08:37:10.248Z,34.90
2022-11-30T08:39:44.097Z,34.70
2022-11-30T08:42:19.414Z,35.30
2022-11-30T08:44:53.218Z,34.90
2022-11-30T08:47:26.781Z,35.20
2022-11-30T08:50:01.132Z,36.60
2022-11-30T08:52:35.094Z,36.00
2022-11-30T08:55:10.317Z,36.20
2022-11-30T08:57:45.681Z,36.10
2022-11-30T09:00:20.356Z,36.50
2022-11-30T09:02:54.531Z,36.90
2022-11-30T09:05:28.426Z,37.30
2022-11-30T09:08:02.031Z,37.60
2022-11-30T09:10:35.943Z,38.00
2022-11-30T09:13:10.919Z,38.10
2022-11-30T09:15:45.142Z,38.80
2022-11-30T09:18:19.075Z,38.30
2022-11-30T09:20:53.122Z,38.40
2022-11-30T09:23:26.708Z,38.30
2022-11-30T09:26:02.565Z,38.60
2022-11-30T09:28:38.954Z,38.30
2022-11-30T09:31:14.723Z,38.50
2022-11-30T09:33:49.212Z,38.40
2022-11-30T09:36:24.246Z,38.30
2022-11-30T09:38:58.507Z,38.80
2022-11-30T09:42:13.680Z,38.60
2022-11-30T09:44:58.868Z,39.80
2022-11-30T09:47:51.638Z,38.40
2022-11-30T09:50:29.347Z,38.30
2022-11-30T09:53:06.680Z,38.40
2022-11-30T09:55:43.351Z,38.50
2022-11-30T09:58:28.632Z,38.20
2022-11-30T10:01:19.929Z,37.80
2022-11-30T10:03:53.893Z,38.60
2022-11-30T10:06:29.846Z,38.10
2022-11-30T10:09:26.231Z,38.60
2022-11-30T10:12:08.665Z,38.30
2022-11-30T10:15:06.668Z,38.70
2022-11-30T10:17:47.952Z,38.20
2022-11-30T10:20:49.216Z,38.60
2022-11-30T10:23:38.608Z,39.00
2022-11-30T10:26:16.194Z,38.70
2022-11-30T10:28:53.075Z,38.40
2022-11-30T10:31:34.453Z,38.20
2022-11-30T10:34:20.442Z,38.20
2022-11-30T10:37:01.400Z,38.60
2022-11-30T10:39:44.291Z,38.30
2022-11-30T10:42:26.913Z,38.40
2022-11-30T10:45:05.760Z,38.40
2022-11-30T10:47:44.762Z,38.60
2022-11-30T10:50:20.220Z,38.70
2022-11-30T10:52:57.030Z,39.00
2022-11-30T10:55:36.110Z,38.90
2022-11-30T10:58:20.989Z,38.90
2022-11-30T11:01:02.061Z,38.60
2022-11-30T11:03:36.144Z,39.00
2022-11-30T11:06:17.030Z,39.40
2022-11-30T11:08:51.670Z,39.90
2022-11-30T11:11:32.470Z,40.20
2022-11-30T11:14:22.232Z,40.50
2022-11-30T11:16:59.251Z,40.80
2022-11-30T11:19:37.179Z,40.80
2022-11-30T11:22:20.269Z,40.90
2022-11-30T11:24:57.571Z,41.20
2022-11-30T11:27:33.415Z,41.30
2022-11-30T11:30:14.000Z,41.60
2022-11-30T11:33:00.466Z,41.70
2022-11-30T11:35:37.629Z,41.90
2022-11-30T11:38:27.656Z,42.00
2022-11-30T11:41:03.706Z,42.20
2022-11-30T11:43:57.640Z,42.80
2022-11-30T11:46:33.313Z,42.60
2022-11-30T11:49:19.620Z,42.80
2022-11-30T11:52:02.115Z,42.90
2022-11-30T11:54:42.830Z,43.10
2022-11-30T11:57:19.268Z,43.10
2022-11-30T11:59:58.432Z,43.10
2022-11-30T12:02:39.430Z,43.30
2022-11-30T12:05:16.975Z,43.20
2022-11-30T12:08:01.785Z,43.20
2022-11-30T12:10:51.629Z,43.30
2022-11-30T12:13:34.010Z,43.40
2022-11-30T12:16:21.154Z,43.30
2022-11-30T12:19:00.282Z,43.20
2022-11-30T12:21:47.038Z,43.30
2022-11-30T12:24:50.079Z,43.30
2022-11-30T12:27:39.930Z,43.30
2022-11-30T12:30:22.457Z,43.30
2022-11-30T12:33:10.714Z,43.40
2022-11-30T12:35:59.884Z,43.90
2022-11-30T12:38:44.302Z,44.20
2022-11-30T12:41:33.109Z,45.20
2022-11-30T12:44:29.321Z,44.70
2022-11-30T12:47:18.688Z,44.60
2022-11-30T12:50:08.890Z,44.60
2022-11-30T12:52:50.359Z,44.60
2022-11-30T12:55:32.220Z,44.60
2022-11-30T12:58:16.361Z,44.60
2022-11-30T13:01:00.149Z,44.60
2022-11-30T13:03:43.025Z,44.50
2022-11-30T13:06:20.227Z,44.40
2022-11-30T13:09:00.663Z,44.40
2022-11-30T13:11:39.181Z,44.40
2022-11-30T13:14:18.450Z,44.30
2022-11-30T13:17:02.267Z,44.30
2022-11-30T13:19:49.367Z,44.30
2022-11-30T13:22:33.135Z,44.20
2022-11-30T13:25:18.680Z,44.20
2022-11-30T13:27:58.911Z,44.20
2022-11-30T13:30:40.921Z,44.10
2022-11-30T13:33:46.638Z,44.00
2022-11-30T13:36:28.883Z,43.90
2022-11-30T13:39:26.863Z,43.90
2022-11-30T13:42:38.708Z,43.70
2022-11-30T13:45:33.600Z,43.60
2022-11-30T13:48:31.250Z,31.00
2022-11-30T13:51:07.620Z,27.30
2022-11-30T13:53:42.601Z,27.90
2022-11-30T13:56:37.068Z,29.60
2022-11-30T13:59:41.018Z,31.00
2022-11-30T14:02:54.561Z,30.20
2022-11-30T14:05:42.332Z,29.90
2022-11-30T14:08:38.262Z,29.80
2022-11-30T14:11:38.770Z,29.90
2022-11-30T14:14:45.441Z,30.40
2022-11-30T14:17:24.352Z,30.70
2022-11-30T14:20:01.926Z,30.90
2022-11-30T14:22:36.536Z,30.70
2022-11-30T14:25:17.495Z,31.00
2022-11-30T14:27:57.115Z,31.50
2022-11-30T14:30:34.036Z,30.70
2022-11-30T14:33:19.667Z,30.70
2022-11-30T14:35:58.069Z,30.90
2022-11-30T14:38:32.748Z,31.00
2022-11-30T14:41:10.346Z,31.40
2022-11-30T14:44:02.480Z,31.90
2022-11-30T14:46:36.886Z,33.50
2022-11-30T14:49:15.819Z,32.70
2022-11-30T14:51:52.270Z,33.20
2022-11-30T14:54:40.432Z,33.40
2022-11-30T14:57:26.030Z,33.80
2022-11-30T15:00:00.249Z,34.50
2022-11-30T15:02:37.552Z,35.10
2022-11-30T15:05:18.252Z,36.00
2022-11-30T15:07:52.554Z,37.10
2022-11-30T15:10:30.758Z,37.70
2022-11-30T15:13:07.089Z,38.40
2022-11-30T15:15:51.956Z,39.00
2022-11-30T15:18:27.161Z,39.50
2022-11-30T15:21:04.880Z,39.60
2022-11-30T15:23:38.857Z,39.90
2022-11-30T15:26:17.839Z,40.00
2022-11-30T15:28:57.993Z,40.20
2022-11-30T15:31:36.933Z,40.30
2022-11-30T15:34:20.807Z,40.40
2022-11-30T15:36:56.019Z,40.60
2022-11-30T15:39:32.752Z,40.70
2022-11-30T15:42:07.157Z,40.80
2022-11-30T15:44:46.928Z,40.80
2022-11-30T15:47:27.645Z,40.60
2022-11-30T15:50:01.789Z,40.20
2022-11-30T15:52:35.852Z,39.70
2022-11-30T15:55:43.723Z,39.50
2022-11-30T15:58:34.460Z,39.70
2022-11-30T16:01:12.745Z,39.80
2022-11-30T16:04:04.581Z,40.00
2022-11-30T16:06:46.458Z,40.20
2022-11-30T16:09:22.983Z,40.30
2022-11-30T16:11:59.255Z,40.50
2022-11-30T16:14:33.238Z,40.50
2022-11-30T16:17:11.710Z,40.60
2022-11-30T16:19:45.853Z,40.70
2022-11-30T16:22:20.036Z,40.70
2022-11-30T16:24:53.832Z,40.80
2022-11-30T16:27:27.437Z,40.90
2022-11-30T16:30:01.222Z,40.90
2022-11-30T16:32:36.826Z,41.10
2022-11-30T16:35:22.922Z,41.30
2022-11-30T16:37:57.112Z,41.40
2022-11-30T16:40:36.936Z,41.50
2022-11-30T16:43:12.689Z,41.60
2022-11-30T16:45:47.123Z,41.80
2022-11-30T16:48:22.911Z,41.90
2022-11-30T16:50:57.006Z,42.00
2022-11-30T16:53:30.829Z,42.40
2022-11-30T16:56:04.442Z,42.60
2022-11-30T16:58:38.313Z,43.30
2022-11-30T17:01:16.269Z,43.50
2022-11-30T17:03:53.256Z,44.10
2022-11-30T17:06:27.726Z,44.60
2022-11-30T17:09:01.630Z,44.80
2022-11-30T17:11:38.604Z,45.10
2022-11-30T17:14:14.352Z,45.30
2022-11-30T17:16:48.308Z,45.10
2022-11-30T17:19:23.590Z,45.20
2022-11-30T17:21:57.455Z,45.20
2022-11-30T17:24:31.526Z,45.20
2022-11-30T17:27:05.923Z,45.30
2022-11-30T17:29:40.042Z,45.30
2022-11-30T17:32:13.939Z,45.30
2022-11-30T17:34:49.827Z,45.40
2022-11-30T17:37:24.787Z,45.50
2022-11-30T17:39:59.175Z,45.80
2022-11-30T17:42:33.080Z,46.10
2022-11-30T17:45:07.984Z,46.30
2022-11-30T17:47:41.929Z,46.70
2022-11-30T17:50:17.484Z,46.90
2022-11-30T17:52:51.576Z,47.20
2022-11-30T17:55:25.483Z,47.80
2022-11-30T17:58:00.573Z,48.40
2022-11-30T18:00:34.626Z,48.70
2022-11-30T18:03:09.151Z,48.80
2022-11-30T18:05:44.744Z,48.90
2022-11-30T18:08:19.083Z,49.20
2022-11-30T18:10:52.961Z,49.20
2022-11-30T18:13:29.499Z,49.30
2022-11-30T18:16:14.379Z,49.40
2022-11-30T18:18:49.004Z,49.40
2022-11-30T18:21:25.315Z,49.40
2022-11-30T18:23:59.816Z,49.60
2022-11-30T18:26:35.669Z,50.00
2022-11-30T18:29:11.014Z,50.10
2022-11-30T18:31:44.971Z,50.30
2022-11-30T18:34:18.978Z,50.30
2022-11-30T18:36:54.360Z,50.40
2022-11-30T18:39:28.369Z,50.40
2022-11-30T18:42:02.425Z,50.30
2022-11-30T18:44:36.319Z,50.30
2022-11-30T18:47:09.989Z,50.20
2022-11-30T18:49:44.347Z,50.50
2022-11-30T18:52:19.900Z,50.40
2022-11-30T18:54:53.736Z,50.70
2022-11-30T18:57:27.634Z,50.90
2022-11-30T19:00:01.198Z,50.80
2022-11-30T19:02:35.798Z,51.20
2022-11-30T19:05:13.586Z,50.70
2022-11-30T19:07:49.464Z,50.90
2022-11-30T19:10:23.283Z,50.80
2022-11-30T19:12:57.402Z,50.40
2022-11-30T19:15:31.668Z,49.60
2022-11-30T19:18:05.876Z,49.20
2022-11-30T19:20:40.434Z,49.30
2022-11-30T19:23:15.788Z,48.40
2022-11-30T19:25:49.733Z,48.20
2022-11-30T19:28:23.594Z,47.60
2022-11-30T19:30:57.598Z,47.20
2022-11-30T19:33:31.654Z,46.80
2022-11-30T19:36:07.527Z,46.50
2022-11-30T19:38:43.067Z,46.20
2022-11-30T19:41:17.305Z,45.90
2022-11-30T19:44:02.447Z,45.70
2022-11-30T19:46:37.383Z,45.40
2022-11-30T19:49:12.167Z,45.20
2022-11-30T19:51:46.091Z,44.80
2022-11-30T19:54:21.390Z,44.90
2022-11-30T19:56:58.025Z,44.80
2022-11-30T19:59:31.960Z,45.00
2022-11-30T20:02:05.951Z,45.20
2022-11-30T20:04:40.159Z,45.60
2022-11-30T20:07:14.980Z,45.70
2022-11-30T20:09:50.531Z,45.90
2022-11-30T20:12:24.534Z,46.10
2022-11-30T20:14:58.453Z,46.20
2022-11-30T20:17:32.244Z,46.20
2022-11-30T20:20:06.393Z,45.60
2022-11-30T20:22:40.467Z,45.30
2022-11-30T20:25:15.813Z,45.10
2022-11-30T20:27:50.377Z,44.90
2022-11-30T20:30:24.388Z,45.00
2022-11-30T20:32:58.277Z,45.10
2022-11-30T20:35:31.774Z,45.20
2022-11-30T20:38:05.583Z,45.20
2022-11-30T20:40:40.499Z,46.00
2022-11-30T20:43:14.516Z,45.50
2022-11-30T20:45:48.465Z,45.70
2022-11-30T20:48:22.470Z,45.90
2022-11-30T20:51:28.464Z,46.10
2022-11-30T20:53:51.142Z,46.10
2022-11-30T20:56:26.713Z,46.20
2022-11-30T20:59:02.957Z,46.30
2022-11-30T21:01:37.172Z,46.30
2022-11-30T21:04:11.193Z,46.40
2022-11-30T21:06:45.900Z,46.50
2022-11-30T21:09:20.755Z,46.50
2022-11-30T21:11:56.371Z,46.60
2022-11-30T21:14:30.343Z,46.70
2022-11-30T21:17:04.192Z,46.70
2022-11-30T21:19:37.793Z,46.80
2022-11-30T21:22:12.170Z,46.90
2022-11-30T21:24:46.133Z,46.90
2022-11-30T21:27:21.638Z,47.50
2022-11-30T21:29:55.527Z,47.00
2022-11-30T21:32:29.564Z,47.40
2022-11-30T21:35:03.665Z,47.50
2022-11-30T21:37:37.493Z,47.70
2022-11-30T21:40:11.670Z,47.80
2022-11-30T21:42:46.948Z,48.10
2022-11-30T21:45:20.709Z,48.10
2022-11-30T21:47:54.309Z,48.40
2022-11-30T21:50:28.204Z,49.10
2022-11-30T21:53:02.084Z,48.80
2022-11-30T21:55:36.719Z,49.10
2022-11-30T21:58:12.157Z,49.40
2022-11-30T22:00:46.059Z,49.60
2022-11-30T22:03:19.964Z,49.60
2022-11-30T22:06:01.356Z,49.60
2022-11-30T22:08:36.359Z,49.70
2022-11-30T22:11:12.112Z,49.60
2022-11-30T22:13:51.383Z,49.50
2022-11-30T22:16:32.585Z,49.60
2022-11-30T22:19:09.641Z,49.60
2022-11-30T22:21:49.435Z,49.50
2022-11-30T22:24:24.013Z,49.40
2022-11-30T22:26:57.825Z,49.40
2022-11-30T22:29:32.864Z,49.40
2022-11-30T22:32:07.050Z,49.30
2022-11-30T22:34:40.856Z,49.20
2022-11-30T22:37:14.552Z,49.30
2022-11-30T22:39:48.665Z,49.20
2022-11-30T22:42:22.822Z,49.20
2022-11-30T22:44:58.292Z,49.20
2022-11-30T22:47:32.254Z,49.20
2022-11-30T22:50:07.520Z,49.20
2022-11-30T22:53:02.406Z,49.10
2022-11-30T22:55:35.619Z,49.10
2022-11-30T22:58:09.717Z,49.10
2022-11-30T23:00:45.105Z,49.10
2022-11-30T23:03:19.089Z,49.10
2022-11-30T23:05:53.104Z,49.00
2022-11-30T23:08:27.080Z,49.00
2022-11-30T23:11:02.028Z,49.00
2022-11-30T23:13:36.411Z,48.90
2022-11-30T23:16:12.890Z,49.10
2022-11-30T23:18:49.595Z,48.90
2022-11-30T23:21:27.046Z,48.90
2022-11-30T23:24:03.569Z,49.20
2022-11-30T23:26:39.230Z,49.50
2022-11-30T23:29:14.875Z,49.70
2022-11-30T23:31:50.344Z,49.80
2022-11-30T23:34:24.303Z,50.00
2022-11-30T23:36:58.035Z,50.10
2022-11-30T23:39:31.820Z,50.30
2022-11-30T23:42:05.562Z,50.30
2022-11-30T23:44:39.345Z,50.50
2022-11-30T23:47:18.262Z,50.50
2022-11-30T23:49:52.426Z,50.60
2022-11-30T23:52:26.067Z,50.50
2022-11-30T23:55:00.087Z,50.70
2022-11-30T23:57:34.008Z,50.60
